Time;durP1;ratioP1;P1;durP2;ratioP2;P2;SDS_P1;SDS_P2;PMS_P1;PMS_P2;Temp;Humidity;BMP_temperature;BMP_pressure;BME280_temperature;BME280_humidity;BME280_pressure;Samples;Min_cycle;Max_cycle;Signal;HPM_P1;HPM_P2
2023/06/07 00:00:21;;;;;;;6.18;5.20;;;21.60;99.90;;;;;;6305459;22;20010;-63
2023/06/07 00:02:47;;;;;;;5.30;4.80;;;21.60;99.90;;;;;;6305369;22;20015;-64
2023/06/07 00:05:13;;;;;;;5.90;5.30;;;21.60;99.90;;;;;;6305802;22;20030;-63
2023/06/07 00:07:39;;;;;;;5.95;5.05;;;21.60;99.90;;;;;;6305427;22;20341;-63
2023/06/07 00:10:06;;;;;;;5.85;5.15;;;21.50;99.90;;;;;;6305284;22;20003;-63
2023/06/07 00:12:33;;;;;;;6.75;5.28;;;21.50;99.90;;;;;;6305369;22;20053;-62
2023/06/07 00:15:02;;;;;;;5.68;5.18;;;21.40;99.90;;;;;;6305209;22;20070;-63
2023/06/07 00:17:28;;;;;;;5.90;5.30;;;21.40;99.90;;;;;;6305138;22;20027;-62
2023/06/07 00:19:56;;;;;;;6.25;5.15;;;21.30;99.90;;;;;;6305067;22;20003;-63
2023/06/07 00:22:22;;;;;;;7.25;5.47;;;21.30;99.90;;;;;;6305253;22;20055;-63
2023/06/07 00:24:51;;;;;;;7.30;5.72;;;21.30;99.90;;;;;;6305472;22;20022;-63
2023/06/07 00:27:17;;;;;;;6.03;5.50;;;21.30;99.90;;;;;;6305145;22;20378;-63
2023/06/07 00:29:43;;;;;;;6.90;5.35;;;21.30;99.90;;;;;;6305051;22;20449;-63
2023/06/07 00:32:08;;;;;;;6.18;5.57;;;21.30;99.90;;;;;;6304738;22;20015;-63
2023/06/07 00:34:34;;;;;;;5.60;5.10;;;21.20;99.90;;;;;;6305299;22;19999;-62
2023/06/07 00:37:00;;;;;;;6.05;5.45;;;21.20;99.90;;;;;;6305716;22;20003;-62
2023/06/07 00:39:26;;;;;;;7.32;5.60;;;21.10;99.90;;;;;;6305337;22;20007;-63
2023/06/07 00:41:52;;;;;;;5.85;5.32;;;21.00;99.90;;;;;;6304568;22;20072;-61
2023/06/07 00:44:18;;;;;;;6.43;5.40;;;21.00;99.90;;;;;;6308271;22;19999;-63
2023/06/07 00:46:44;;;;;;;6.18;5.68;;;20.90;99.90;;;;;;6308880;22;20035;-63
2023/06/07 00:49:16;;;;;;;6.25;5.43;;;20.90;99.90;;;;;;6309213;22;20053;-63
2023/06/07 00:51:42;;;;;;;6.40;5.78;;;20.90;99.90;;;;;;6308508;22;19999;-62
2023/06/07 00:54:08;;;;;;;6.68;5.97;;;20.90;99.90;;;;;;6308603;22;20003;-63
2023/06/07 00:56:35;;;;;;;6.88;5.65;;;20.90;99.90;;;;;;6308322;22;20003;-63
2023/06/07 00:59:02;;;;;;;5.90;5.40;;;20.90;99.90;;;;;;6308775;22;20009;-62
2023/06/07 01:01:28;;;;;;;6.75;5.65;;;20.80;99.90;;;;;;6308860;22;20391;-63
2023/06/07 01:03:54;;;;;;;6.38;5.78;;;20.80;99.90;;;;;;6308524;22;20038;-63
2023/06/07 01:06:22;;;;;;;6.03;5.53;;;20.70;99.90;;;;;;6308324;22;20003;-63
2023/06/07 01:08:49;;;;;;;6.25;5.75;;;20.60;99.90;;;;;;6308421;22;20334;-64
2023/06/07 01:11:16;;;;;;;6.40;5.88;;;20.60;99.90;;;;;;6308383;22;19999;-62
2023/06/07 01:13:42;;;;;;;6.10;5.60;;;20.60;99.90;;;;;;6308213;22;20003;-63
2023/06/07 01:16:08;;;;;;;6.57;6.00;;;20.50;99.90;;;;;;6308234;22;20462;-62
2023/06/07 01:18:35;;;;;;;6.63;5.90;;;20.40;99.90;;;;;;6308434;22;20010;-63
2023/06/07 01:21:04;;;;;;;6.28;5.68;;;20.40;99.90;;;;;;6308953;22;20392;-63
2023/06/07 01:23:34;;;;;;;6.38;5.85;;;20.30;99.90;;;;;;6308303;22;20003;-63
2023/06/07 01:26:01;;;;;;;6.32;5.72;;;20.30;99.90;;;;;;6308466;22;20364;-62
2023/06/07 01:28:28;;;;;;;6.68;5.90;;;20.30;99.90;;;;;;6308171;22;19999;-63
2023/06/07 01:30:55;;;;;;;6.65;5.93;;;20.30;99.90;;;;;;6308329;22;20029;-63
2023/06/07 01:33:22;;;;;;;6.65;5.88;;;20.20;99.90;;;;;;6309021;22;20026;-63
2023/06/07 01:35:50;;;;;;;6.35;5.78;;;20.20;99.90;;;;;;6308561;22;20405;-62
2023/06/07 01:38:19;;;;;;;6.88;5.88;;;20.20;99.90;;;;;;6308245;22;20006;-63
2023/06/07 01:40:46;;;;;;;6.55;5.95;;;20.20;99.90;;;;;;6308220;22;20043;-63
2023/06/07 01:43:12;;;;;;;6.65;6.03;;;20.20;99.90;;;;;;6309004;22;20007;-65
2023/06/07 01:45:39;;;;;;;6.85;6.20;;;20.10;99.90;;;;;;6308283;22;20034;-66
2023/06/07 01:48:05;;;;;;;6.32;5.72;;;20.10;99.90;;;;;;6308513;22;20004;-64
2023/06/07 01:50:31;;;;;;;6.90;6.20;;;20.10;99.90;;;;;;6308380;22;20006;-64
2023/06/07 01:52:57;;;;;;;6.40;5.90;;;20.00;99.90;;;;;;6309005;22;19999;-65
2023/06/07 01:55:24;;;;;;;6.90;6.20;;;19.90;99.90;;;;;;6306474;22;20007;-65
2023/06/07 01:57:59;;;;;;;6.95;6.25;;;19.90;99.90;;;;;;6306549;22;20003;-64
2023/06/07 02:01:08;;;;;;;6.90;6.30;;;19.80;99.90;;;;;;6306745;22;20043;-65
2023/06/07 02:03:41;;;;;;;7.47;6.00;;;19.70;99.90;;;;;;6306659;22;20052;-65
2023/06/07 02:06:11;;;;;;;7.18;6.57;;;19.70;99.90;;;;;;6306371;22;20003;-64
2023/06/07 02:08:47;;;;;;;8.05;7.38;;;19.80;99.90;;;;;;6306468;22;20129;-65
2023/06/07 02:11:15;;;;;;;8.45;7.75;;;19.80;99.90;;;;;;6306745;22;19999;-64
2023/06/07 02:13:42;;;;;;;8.25;7.57;;;19.80;99.90;;;;;;6306505;22;20076;-64
2023/06/07 02:16:08;;;;;;;10.02;9.13;;;19.70;99.90;;;;;;6306384;22;20041;-64
2023/06/07 02:18:40;;;;;;;10.00;9.25;;;19.70;99.90;;;;;;6306842;22;20007;-64
2023/06/07 02:21:09;;;;;;;10.57;9.60;;;19.70;99.90;;;;;;6306653;22;20042;-63
2023/06/07 02:23:35;;;;;;;11.43;10.50;;;19.60;99.90;;;;;;6305813;22;20412;-63
2023/06/07 02:26:01;;;;;;;11.10;10.10;;;19.60;99.90;;;;;;6306859;22;20007;-63
2023/06/07 02:28:27;;;;;;;11.70;10.70;;;19.50;99.90;;;;;;6306142;22;20543;-64
2023/06/07 02:30:55;;;;;;;10.73;9.85;;;19.50;99.90;;;;;;6306305;22;20093;-65
2023/06/07 02:33:24;;;;;;;11.40;10.20;;;19.50;99.90;;;;;;6306292;22;20007;-65
2023/06/07 02:35:50;;;;;;;10.57;9.63;;;19.50;99.90;;;;;;6306407;22;20003;-64
2023/06/07 02:38:15;;;;;;;10.90;10.00;;;19.50;99.90;;;;;;6305858;22;20499;-64
2023/06/07 02:40:41;;;;;;;11.07;10.00;;;19.40;99.90;;;;;;6306908;22;20496;-64
2023/06/07 02:43:07;;;;;;;10.80;9.70;;;19.40;99.90;;;;;;6306429;22;20489;-64
2023/06/07 02:45:32;;;;;;;11.70;10.52;;;19.40;99.90;;;;;;6306101;22;20006;-64
2023/06/07 02:47:58;;;;;;;12.25;11.10;;;19.40;99.90;;;;;;6306525;22;20461;-64
2023/06/07 02:50:24;;;;;;;10.98;9.88;;;19.30;99.90;;;;;;6306215;22;19999;-65
2023/06/07 02:52:50;;;;;;;14.20;9.50;;;19.30;99.90;;;;;;6305740;22;20006;-63
2023/06/07 02:55:16;;;;;;;11.27;9.48;;;19.30;99.90;;;;;;6306325;22;20071;-64
2023/06/07 02:57:42;;;;;;;9.88;9.07;;;19.30;99.90;;;;;;6305977;22;20050;-63
2023/06/07 03:00:10;;;;;;;10.10;9.05;;;19.30;99.90;;;;;;6278431;22;20094;-64
2023/06/07 03:02:37;;;;;;;9.48;8.68;;;19.30;99.90;;;;;;6306056;22;20006;-64
2023/06/07 03:05:04;;;;;;;9.20;8.20;;;19.30;99.90;;;;;;6306407;22;20438;-64
2023/06/07 03:07:29;;;;;;;9.45;8.55;;;19.30;99.90;;;;;;6304837;22;20048;-64
2023/06/07 03:09:58;;;;;;;8.73;7.82;;;19.30;99.90;;;;;;6305813;22;20078;-63
2023/06/07 03:12:24;;;;;;;8.70;7.82;;;19.30;99.90;;;;;;6305643;22;20422;-64
2023/06/07 03:14:50;;;;;;;8.40;7.50;;;19.30;99.90;;;;;;6306232;22;20003;-64
2023/06/07 03:17:17;;;;;;;9.00;8.20;;;19.20;99.90;;;;;;6305829;22;20014;-64
2023/06/07 03:19:43;;;;;;;8.20;7.18;;;19.30;99.90;;;;;;6306366;22;20007;-63
2023/06/07 03:22:09;;;;;;;7.55;6.93;;;19.30;99.90;;;;;;6305485;22;20395;-64
2023/06/07 03:24:36;;;;;;;8.25;7.53;;;19.20;99.90;;;;;;6305489;22;20007;-64
2023/06/07 03:27:03;;;;;;;7.63;6.90;;;19.20;99.90;;;;;;6305686;22;20007;-64
2023/06/07 03:29:30;;;;;;;8.15;7.45;;;19.20;99.90;;;;;;6306476;22;20006;-64
2023/06/07 03:31:56;;;;;;;8.82;7.93;;;19.20;99.90;;;;;;6305501;22;20026;-64
2023/06/07 03:34:22;;;;;;;8.05;7.35;;;19.10;99.90;;;;;;6305541;22;20011;-64
2023/06/07 03:36:48;;;;;;;8.18;7.38;;;19.00;99.90;;;;;;6277601;22;20003;-63
2023/06/07 03:39:14;;;;;;;9.95;7.88;;;19.00;99.90;;;;;;6305891;22;20729;-64
2023/06/07 03:41:39;;;;;;;8.82;7.53;;;19.00;99.90;;;;;;6305777;22;20011;-64
2023/06/07 03:44:05;;;;;;;8.65;7.70;;;19.00;99.90;;;;;;6306358;22;20003;-65
2023/06/07 03:46:31;;;;;;;8.73;7.82;;;19.00;99.90;;;;;;6305444;22;20013;-64
2023/06/07 03:48:56;;;;;;;9.15;8.45;;;19.00;99.90;;;;;;6305663;22;19999;-63
2023/06/07 03:51:22;;;;;;;9.18;8.30;;;18.90;99.90;;;;;;6305045;22;20078;-63
2023/06/07 03:53:48;;;;;;;8.98;8.07;;;18.90;99.90;;;;;;6306168;22;20010;-63
2023/06/07 03:56:15;;;;;;;9.07;8.27;;;18.90;99.90;;;;;;6305322;22;20004;-64
2023/06/07 03:58:40;;;;;;;10.10;9.10;;;18.80;99.90;;;;;;6305569;22;20031;-64
2023/06/07 04:01:06;;;;;;;10.00;9.10;;;18.80;99.90;;;;;;6305343;22;20015;-64
2023/06/07 04:03:32;;;;;;;10.25;9.25;;;18.70;99.90;;;;;;6305726;22;20004;-64
2023/06/07 04:05:58;;;;;;;10.23;9.27;;;18.70;99.90;;;;;;6305038;22;20060;-64
2023/06/07 04:08:24;;;;;;;10.30;9.27;;;18.70;99.90;;;;;;6305235;22;19996;-64
2023/06/07 04:10:50;;;;;;;9.95;8.95;;;18.70;99.90;;;;;;6305347;22;19996;-64
2023/06/07 04:13:16;;;;;;;9.95;9.05;;;18.70;99.90;;;;;;6305961;22;20014;-64
2023/06/07 04:15:43;;;;;;;10.38;9.00;;;18.70;99.90;;;;;;6305207;22;20030;-64
2023/06/07 04:18:08;;;;;;;9.68;8.50;;;18.70;99.90;;;;;;6305016;22;20007;-64
2023/06/07 04:20:34;;;;;;;9.27;8.38;;;18.60;99.90;;;;;;6304932;22;20061;-64
2023/06/07 04:23:00;;;;;;;8.75;7.85;;;18.60;99.90;;;;;;6305764;22;20005;-64
2023/06/07 04:25:34;;;;;;;8.88;7.90;;;18.60;99.90;;;;;;6305063;22;20319;-64
2023/06/07 04:28:01;;;;;;;9.57;7.10;;;18.60;99.90;;;;;;6305289;22;19995;-64
2023/06/07 04:30:34;;;;;;;7.57;6.88;;;18.60;99.90;;;;;;6305149;22;20011;-65
2023/06/07 04:33:13;;;;;;;7.85;6.20;;;18.70;99.90;;;;;;6305553;22;20007;-64
2023/06/07 04:35:42;;;;;;;7.07;6.47;;;18.70;99.90;;;;;;6305273;22;20008;-64
2023/06/07 04:38:11;;;;;;;7.43;6.82;;;18.70;99.90;;;;;;6305290;22;20311;-62
2023/06/07 04:40:41;;;;;;;8.68;7.25;;;18.70;99.90;;;;;;6305820;22;20395;-64
2023/06/07 04:43:08;;;;;;;7.50;6.80;;;18.70;99.90;;;;;;6305483;22;20052;-64
2023/06/07 04:45:36;;;;;;;7.35;6.75;;;18.70;99.90;;;;;;6304992;22;20003;-64
2023/06/07 04:48:04;;;;;;;7.63;6.70;;;18.60;99.90;;;;;;6304808;22;20484;-64
2023/06/07 04:50:30;;;;;;;6.93;6.30;;;18.70;99.90;;;;;;6305277;22;20430;-64
2023/06/07 04:53:03;;;;;;;6.38;5.78;;;18.60;99.90;;;;;;6304823;22;20049;-64
2023/06/07 04:55:30;;;;;;;6.60;6.00;;;18.60;99.90;;;;;;6305329;22;20068;-64
2023/06/07 04:57:58;;;;;;;6.40;5.78;;;18.60;99.90;;;;;;6305473;22;20303;-65
2023/06/07 05:00:27;;;;;;;6.57;5.93;;;18.60;99.90;;;;;;6305795;22;20010;-64
2023/06/07 05:02:53;;;;;;;6.07;5.30;;;18.60;99.90;;;;;;6305096;22;20007;-64
2023/06/07 05:05:19;;;;;;;5.75;5.25;;;18.70;99.90;;;;;;6304947;22;20003;-64
2023/06/07 05:07:46;;;;;;;6.10;5.60;;;18.60;99.90;;;;;;6304974;22;19999;-64
2023/06/07 05:10:12;;;;;;;5.88;5.28;;;18.70;99.90;;;;;;6305235;22;20007;-64
2023/06/07 05:12:38;;;;;;;6.07;5.50;;;18.70;99.90;;;;;;6305322;22;20345;-64
2023/06/07 05:15:05;;;;;;;6.28;5.68;;;18.60;99.90;;;;;;6304849;22;20082;-64
2023/06/07 05:17:32;;;;;;;6.80;6.03;;;18.70;99.90;;;;;;6305056;22;20006;-63
2023/06/07 05:19:57;;;;;;;6.22;5.63;;;18.70;99.90;;;;;;6304742;22;20007;-64
2023/06/07 05:22:23;;;;;;;5.93;5.30;;;18.70;99.90;;;;;;6304815;22;20133;-63
2023/06/07 05:24:49;;;;;;;7.15;6.07;;;18.70;99.90;;;;;;6304980;22;20433;-64
2023/06/07 05:27:15;;;;;;;6.00;5.50;;;18.70;99.90;;;;;;6304994;22;20488;-63
2023/06/07 05:29:41;;;;;;;6.78;6.03;;;18.80;99.90;;;;;;6306342;22;20002;-64
2023/06/07 05:32:07;;;;;;;6.20;5.70;;;18.80;99.90;;;;;;6307151;22;20521;-65
2023/06/07 05:34:33;;;;;;;6.65;5.97;;;18.90;99.90;;;;;;6307117;22;20010;-64
2023/06/07 05:36:58;;;;;;;6.35;5.85;;;18.90;99.90;;;;;;6306912;22;20091;-64
2023/06/07 05:39:24;;;;;;;7.10;6.40;;;18.90;99.90;;;;;;6307185;22;19999;-64
2023/06/07 05:41:51;;;;;;;6.18;5.57;;;18.90;99.90;;;;;;6306756;22;20039;-64
2023/06/07 05:44:16;;;;;;;6.78;6.18;;;18.90;99.90;;;;;;6306666;22;20003;-64
2023/06/07 05:46:42;;;;;;;5.72;5.22;;;18.90;99.90;;;;;;6306461;22;20007;-64
2023/06/07 05:49:08;;;;;;;6.60;5.95;;;19.00;99.90;;;;;;6307164;22;20307;-64
2023/06/07 05:51:33;;;;;;;6.28;5.47;;;19.00;99.90;;;;;;6306665;22;20078;-63
2023/06/07 05:53:59;;;;;;;6.22;5.40;;;19.00;99.90;;;;;;6306568;22;19996;-64
2023/06/07 05:56:25;;;;;;;5.53;5.10;;;19.00;99.90;;;;;;6306428;22;20057;-64
2023/06/07 05:58:51;;;;;;;5.82;5.30;;;19.00;99.90;;;;;;6306462;22;19995;-64
2023/06/07 06:01:17;;;;;;;5.78;5.28;;;19.10;99.90;;;;;;6306374;22;20082;-63
2023/06/07 06:03:43;;;;;;;6.10;5.55;;;19.10;99.90;;;;;;6306305;22;20086;-64
2023/06/07 06:06:16;;;;;;;6.18;5.15;;;19.20;99.90;;;;;;6306741;22;19999;-66
2023/06/07 06:08:43;;;;;;;7.40;5.32;;;19.20;99.90;;;;;;6306819;22;20003;-65
2023/06/07 06:11:12;;;;;;;8.15;5.82;;;19.30;99.90;;;;;;6306240;22;20014;-66
2023/06/07 06:13:39;;;;;;;6.00;5.18;;;19.30;99.90;;;;;;6306724;22;20003;-65
2023/06/07 06:16:05;;;;;;;5.70;5.03;;;19.30;99.90;;;;;;6306049;22;20011;-65
2023/06/07 06:18:31;;;;;;;5.63;5.10;;;19.40;99.90;;;;;;6306967;22;20007;-65
2023/06/07 06:20:57;;;;;;;5.05;4.63;;;19.40;99.90;;;;;;6306468;22;20040;-65
2023/06/07 06:23:23;;;;;;;8.05;5.03;;;19.50;99.90;;;;;;6306187;22;20446;-65
2023/06/07 06:25:50;;;;;;;7.35;4.50;;;19.60;99.90;;;;;;6306276;22;20034;-65
2023/06/07 06:28:16;;;;;;;5.70;4.75;;;19.60;99.90;;;;;;6304520;22;20070;-65
2023/06/07 06:30:42;;;;;;;5.07;4.47;;;19.60;99.90;;;;;;6304454;22;20023;-65
2023/06/07 06:33:08;;;;;;;6.15;5.00;;;19.70;99.90;;;;;;6305741;22;20003;-66
2023/06/07 06:35:34;;;;;;;6.38;4.70;;;19.70;99.90;;;;;;6305262;22;20061;-64
2023/06/07 06:38:00;;;;;;;4.80;4.30;;;19.80;99.90;;;;;;6306385;22;20446;-64
2023/06/07 06:40:26;;;;;;;5.88;4.35;;;19.90;99.90;;;;;;6303889;22;20008;-66
2023/06/07 06:42:52;;;;;;;5.47;4.55;;;19.90;99.90;;;;;;6305911;22;20354;-66
2023/06/07 06:45:18;;;;;;;6.45;4.57;;;20.00;99.90;;;;;;6305576;22;20436;-65
2023/06/07 06:47:44;;;;;;;5.32;4.82;;;20.00;99.90;;;;;;6305631;22;19999;-66
2023/06/07 06:50:13;;;;;;;5.15;4.43;;;20.10;99.90;;;;;;6305816;22;20006;-66
2023/06/07 06:52:40;;;;;;;5.18;4.40;;;20.10;99.90;;;;;;6305860;22;20460;-65
2023/06/07 06:55:07;;;;;;;4.68;4.18;;;20.20;99.90;;;;;;6305526;22;20003;-66
2023/06/07 06:57:32;;;;;;;9.10;4.63;;;20.30;99.90;;;;;;6305832;22;20011;-65
2023/06/07 06:59:59;;;;;;;7.45;4.60;;;20.30;99.90;;;;;;6305123;22;20434;-64
2023/06/07 07:02:25;;;;;;;7.00;4.35;;;20.30;99.90;;;;;;6305754;22;20011;-64
2023/06/07 07:04:51;;;;;;;4.85;4.35;;;20.40;99.90;;;;;;6305766;22;20358;-64
2023/06/07 07:07:16;;;;;;;5.63;3.90;;;20.50;99.90;;;;;;6304923;22;20007;-64
2023/06/07 07:09:42;;;;;;;5.88;4.43;;;20.60;99.90;;;;;;6306238;22;20082;-64
2023/06/07 07:12:08;;;;;;;4.75;4.28;;;20.60;99.90;;;;;;6305818;22;20365;-63
2023/06/07 07:14:34;;;;;;;7.22;4.43;;;20.60;99.90;;;;;;6303971;22;19995;-63
2023/06/07 07:17:00;;;;;;;7.15;4.40;;;20.70;99.90;;;;;;6305988;22;20003;-65
2023/06/07 07:19:25;;;;;;;6.07;4.78;;;20.70;99.90;;;;;;6305594;22;20006;-64
2023/06/07 07:21:52;;;;;;;4.88;4.32;;;20.80;99.90;;;;;;6305517;22;20441;-63
2023/06/07 07:24:17;;;;;;;5.13;4.40;;;20.90;99.90;;;;;;6305386;22;20434;-65
2023/06/07 07:26:43;;;;;;;5.03;3.97;;;20.90;99.90;;;;;;6305888;22;19999;-64
2023/06/07 07:29:09;;;;;;;5.47;4.65;;;20.90;99.90;;;;;;6305064;22;19996;-65
2023/06/07 07:31:35;;;;;;;5.80;4.32;;;21.00;99.90;;;;;;6305112;22;20085;-66
2023/06/07 07:34:02;;;;;;;4.82;4.20;;;21.10;99.90;;;;;;6305325;22;20006;-66
2023/06/07 07:36:28;;;;;;;4.45;4.05;;;21.20;99.90;;;;;;6304876;22;20082;-65
2023/06/07 07:38:54;;;;;;;5.38;4.15;;;21.20;99.90;;;;;;6304489;22;19999;-64
2023/06/07 07:41:20;;;;;;;4.72;4.05;;;21.20;99.90;;;;;;6304196;22;20055;-66
2023/06/07 07:43:46;;;;;;;4.28;3.88;;;21.30;99.90;;;;;;6304885;22;20422;-65
2023/06/07 07:46:13;;;;;;;4.60;4.13;;;21.40;99.90;;;;;;6305325;22;20030;-65
2023/06/07 07:48:39;;;;;;;4.97;4.10;;;21.40;99.90;;;;;;6302932;22;20003;-64
2023/06/07 07:51:05;;;;;;;4.22;3.80;;;21.50;99.90;;;;;;6305677;22;20030;-65
2023/06/07 07:53:31;;;;;;;4.60;4.10;;;21.60;99.90;;;;;;6304988;22;20477;-63
2023/06/07 07:55:57;;;;;;;5.80;4.15;;;21.70;99.90;;;;;;6304837;22;20003;-64
2023/06/07 07:58:25;;;;;;;4.75;4.18;;;21.70;99.90;;;;;;6305283;22;19996;-65
2023/06/07 08:00:52;;;;;;;4.10;3.70;;;21.80;99.90;;;;;;6305148;22;20011;-64
2023/06/07 08:03:18;;;;;;;4.55;3.80;;;21.80;99.90;;;;;;6305284;22;19999;-64
2023/06/07 08:05:44;;;;;;;4.53;3.80;;;21.90;99.90;;;;;;6305145;22;20025;-63
2023/06/07 08:08:09;;;;;;;5.45;3.88;;;22.00;99.90;;;;;;6305143;22;19999;-63
2023/06/07 08:10:35;;;;;;;4.40;4.00;;;22.00;99.90;;;;;;6304592;22;19999;-62
2023/06/07 08:13:01;;;;;;;4.05;3.65;;;22.10;99.90;;;;;;6305159;22;20006;-63
2023/06/07 08:15:27;;;;;;;5.72;3.70;;;22.20;99.90;;;;;;6304902;22;20044;-65
2023/06/07 08:17:52;;;;;;;4.47;3.60;;;22.20;99.90;;;;;;6305536;22;20004;-64
2023/06/07 08:20:18;;;;;;;4.65;3.72;;;22.30;99.90;;;;;;6304987;22;20009;-63
2023/06/07 08:22:43;;;;;;;4.20;3.80;;;22.40;99.90;;;;;;6305202;22;20100;-63
2023/06/07 08:25:09;;;;;;;4.50;3.70;;;22.40;99.90;;;;;;6304927;22;20070;-64
2023/06/07 08:27:35;;;;;;;9.65;4.75;;;22.50;99.90;;;;;;6305359;22;20022;-62
2023/06/07 08:30:02;;;;;;;4.93;3.88;;;22.60;99.90;;;;;;6304890;22;20018;-62
2023/06/07 08:32:28;;;;;;;4.22;3.83;;;22.70;99.90;;;;;;6304835;22;20082;-62
2023/06/07 08:34:55;;;;;;;4.95;3.70;;;22.80;99.90;;;;;;6304656;22;20007;-63
2023/06/07 08:37:21;;;;;;;5.32;4.13;;;22.80;99.90;;;;;;6304929;22;20039;-62
2023/06/07 08:39:47;;;;;;;4.40;3.92;;;22.80;99.90;;;;;;6302619;22;20031;-64
2023/06/07 08:42:13;;;;;;;5.25;3.90;;;22.90;99.90;;;;;;6303947;22;20426;-64
2023/06/07 08:44:41;;;;;;;5.03;4.53;;;23.00;99.90;;;;;;6305227;22;20007;-64
2023/06/07 08:47:08;;;;;;;6.57;4.80;;;23.10;99.90;;;;;;6304909;22;20521;-64
2023/06/07 08:49:34;;;;;;;5.80;5.00;;;23.10;99.90;;;;;;6305383;22;20626;-64
2023/06/07 08:52:02;;;;;;;5.10;4.60;;;23.10;99.90;;;;;;6304553;22;19996;-63
2023/06/07 08:54:30;;;;;;;6.40;4.90;;;23.20;99.90;;;;;;6303943;22;20323;-63
2023/06/07 08:56:56;;;;;;;6.63;5.40;;;23.20;99.90;;;;;;6305186;22;20003;-63
2023/06/07 08:59:25;;;;;;;7.50;5.00;;;23.40;99.90;;;;;;6304781;22;20011;-63
2023/06/07 09:01:54;;;;;;;7.40;4.45;;;23.40;99.90;;;;;;6305519;22;20015;-63
2023/06/07 09:04:20;;;;;;;4.85;4.40;;;23.50;99.90;;;;;;6306087;22;20003;-63
2023/06/07 09:06:45;;;;;;;4.47;3.95;;;23.50;99.90;;;;;;6306629;22;20337;-63
2023/06/07 09:09:11;;;;;;;5.22;4.25;;;23.60;99.90;;;;;;6306456;22;20027;-63
2023/06/07 09:11:37;;;;;;;4.80;4.20;;;23.60;99.90;;;;;;6307628;22;20007;-62
2023/06/07 09:14:03;;;;;;;5.43;4.30;;;23.70;99.90;;;;;;6306590;22;20003;-64
2023/06/07 09:16:28;;;;;;;6.03;4.32;;;23.70;99.90;;;;;;6306864;22;20021;-63
2023/06/07 09:18:55;;;;;;;6.25;4.22;;;23.90;99.90;;;;;;6279206;22;20006;-63
2023/06/07 09:21:26;;;;;;;5.00;4.28;;;24.00;99.90;;;;;;6306555;22;20457;-63
2023/06/07 09:23:53;;;;;;;4.22;3.72;;;24.00;99.90;;;;;;6306475;22;20101;-62
2023/06/07 09:26:22;;;;;;;4.57;3.42;;;24.20;99.90;;;;;;6306810;22;20006;-64
2023/06/07 09:28:48;;;;;;;5.80;4.28;;;24.20;99.90;;;;;;6307084;22;20330;-63
2023/06/07 09:31:32;;;;;;;5.93;4.60;;;24.30;99.90;;;;;;6306460;22;20015;-63
2023/06/07 09:33:58;;;;;;;5.00;4.03;;;24.30;99.90;;;;;;6307375;22;20011;-64
2023/06/07 09:36:26;;;;;;;4.05;3.67;;;24.40;99.90;;;;;;6306617;22;20341;-62
2023/06/07 09:38:52;;;;;;;5.15;4.35;;;24.50;99.90;;;;;;6306189;22;20010;-63
2023/06/07 09:41:18;;;;;;;4.60;3.60;;;24.60;99.90;;;;;;6306258;22;20015;-64
2023/06/07 09:43:50;;;;;;;7.05;3.45;;;24.70;99.90;;;;;;6306686;22;19999;-64
2023/06/07 09:46:18;;;;;;;3.33;3.03;;;24.70;99.90;;;;;;6306373;22;20011;-64
2023/06/07 09:48:51;;;;;;;3.97;3.50;;;24.70;99.90;;;;;;6307119;22;20061;-64
2023/06/07 09:51:20;;;;;;;;;;;24.90;99.90;;;;;;6307366;22;20064;-63
2023/06/07 09:53:50;;;;;;;3.55;3.25;;;25.00;99.90;;;;;;6305841;22;20405;-63
2023/06/07 09:56:22;;;;;;;4.70;3.88;;;25.00;99.90;;;;;;6307001;22;20342;-62
2023/06/07 09:59:09;;;;;;;5.57;4.13;;;25.10;99.90;;;;;;6305686;22;20082;-63
2023/06/07 10:01:47;;;;;;;4.18;3.47;;;24.90;99.90;;;;;;6278108;22;20328;-63
2023/06/07 10:04:13;;;;;;;4.22;2.97;;;25.20;99.90;;;;;;6306107;22;20075;-63
2023/06/07 10:06:41;;;;;;;5.82;3.25;;;25.30;99.90;;;;;;6305757;22;20033;-64
2023/06/07 10:09:08;;;;;;;5.45;3.03;;;25.30;99.90;;;;;;6305911;22;20003;-63
2023/06/07 10:11:36;;;;;;;3.60;3.30;;;25.30;99.90;;;;;;6305290;22;20089;-63
2023/06/07 10:14:09;;;;;;;4.80;3.03;;;25.40;99.90;;;;;;6306610;22;20004;-64
2023/06/07 10:16:36;;;;;;;3.97;3.10;;;25.70;99.90;;;;;;6305946;22;20003;-63
2023/06/07 10:19:15;;;;;;;4.22;3.50;;;25.80;99.90;;;;;;6306517;22;20784;-63
2023/06/07 10:21:45;;;;;;;3.95;2.90;;;25.90;99.90;;;;;;6305698;22;20474;-64
2023/06/07 10:24:16;;;;;;;4.32;2.83;;;26.00;99.90;;;;;;6305510;22;20098;-64
2023/06/07 10:26:57;;;;;;;3.42;3.13;;;26.00;99.90;;;;;;6306700;22;20426;-63
2023/06/07 10:29:35;;;;;;;3.03;2.72;;;26.10;99.90;;;;;;6306460;22;19999;-64
2023/06/07 10:32:09;;;;;;;5.35;3.10;;;26.10;99.90;;;;;;6305258;22;20035;-64
2023/06/07 10:34:36;;;;;;;3.55;3.25;;;26.10;99.90;;;;;;6301437;22;20007;-64
2023/06/07 10:37:03;;;;;;;3.33;2.90;;;26.00;99.90;;;;;;6302321;22;20026;-64
2023/06/07 10:39:29;;;;;;;3.65;3.35;;;26.10;99.90;;;;;;6305797;22;20365;-63
2023/06/07 10:41:56;;;;;;;3.05;2.72;;;26.10;99.90;;;;;;6305745;22;20011;-62
2023/06/07 10:44:22;;;;;;;4.32;2.97;;;26.20;99.90;;;;;;6305779;22;20000;-62
2023/06/07 10:46:48;;;;;;;3.40;2.80;;;26.50;99.90;;;;;;6306198;22;19999;-64
2023/06/07 10:49:36;;;;;;;3.10;2.80;;;26.60;99.90;;;;;;6305882;22;20010;-63
2023/06/07 10:52:03;;;;;;;3.90;2.88;;;26.60;99.90;;;;;;6305419;22;20026;-63
2023/06/07 10:54:35;;;;;;;4.80;2.78;;;26.60;99.90;;;;;;6305647;22;20007;-63
2023/06/07 10:57:02;;;;;;;3.85;2.78;;;26.80;99.90;;;;;;6278766;22;20086;-63
2023/06/07 10:59:28;;;;;;;3.28;2.53;;;26.90;99.90;;;;;;6305970;22;20048;-63
2023/06/07 11:02:24;;;;;;;4.05;2.88;;;26.90;99.90;;;;;;6305886;22;20043;-61
2023/06/07 11:05:00;;;;;;;3.20;2.90;;;27.00;99.90;;;;;;6305752;22;19999;-63
2023/06/07 11:07:32;;;;;;;3.63;2.70;;;26.90;99.90;;;;;;6306532;22;20075;-64
2023/06/07 11:10:07;;;;;;;4.05;2.80;;;27.00;99.90;;;;;;6305853;22;20008;-63
2023/06/07 11:12:35;;;;;;;2.88;2.67;;;27.20;99.90;;;;;;6305973;22;20086;-63
2023/06/07 11:15:21;;;;;;;2.83;2.63;;;27.40;99.90;;;;;;6305302;22;19995;-63
2023/06/07 11:17:58;;;;;;;3.20;2.78;;;27.50;99.90;;;;;;6305830;22;20010;-64
2023/06/07 11:20:36;;;;;;;2.88;2.58;;;27.40;99.90;;;;;;6304182;22;20007;-64
2023/06/07 11:23:24;;;;;;;3.28;2.60;;;27.40;99.90;;;;;;6304903;22;20315;-63
2023/06/07 11:26:14;;;;;;;2.55;2.35;;;27.50;99.90;;;;;;6304614;22;20049;-63
2023/06/07 11:28:41;;;;;;;5.63;3.28;;;27.60;99.90;;;;;;6305229;22;20312;-63
2023/06/07 11:31:13;;;;;;;5.47;3.97;;;27.80;99.90;;;;;;6305729;22;20015;-64
2023/06/07 11:33:42;;;;;;;5.60;3.60;;;27.80;99.90;;;;;;6305332;22;20070;-66
2023/06/07 11:36:09;;;;;;;4.90;3.10;;;27.90;99.90;;;;;;6306000;22;20003;-64
2023/06/07 11:38:35;;;;;;;4.60;2.72;;;27.80;99.90;;;;;;6278010;22;20338;-65
2023/06/07 11:41:03;;;;;;;3.28;2.70;;;27.90;99.90;;;;;;6305586;22;20022;-64
2023/06/07 11:43:31;;;;;;;5.43;2.70;;;27.90;99.90;;;;;;6305433;22;20401;-61
2023/06/07 11:45:58;;;;;;;2.63;2.42;;;27.90;99.90;;;;;;6305936;22;20042;-64
2023/06/07 11:48:30;;;;;;;3.65;2.70;;;27.90;99.90;;;;;;6305212;22;19999;-65
2023/06/07 11:50:56;;;;;;;4.78;3.10;;;28.00;99.90;;;;;;6305190;22;19999;-65
2023/06/07 11:53:22;;;;;;;3.03;2.72;;;28.00;99.90;;;;;;6305158;22;20003;-64
2023/06/07 11:55:48;;;;;;;3.17;2.67;;;28.00;99.90;;;;;;6305216;22;19999;-63
2023/06/07 11:58:14;;;;;;;4.30;3.00;;;27.90;99.90;;;;;;6305395;22;20003;-64
2023/06/07 12:00:43;;;;;;;6.60;4.40;;;28.00;99.90;;;;;;6305021;22;20449;-63
2023/06/07 12:03:10;;;;;;;4.82;3.45;;;28.00;99.90;;;;;;6304996;22;19995;-63
2023/06/07 12:05:36;;;;;;;3.90;3.13;;;28.20;99.90;;;;;;6305052;22;20007;-63
2023/06/07 12:08:15;;;;;;;3.95;2.80;;;28.30;99.90;;;;;;6305097;22;20029;-63
2023/06/07 12:10:41;;;;;;;2.90;2.63;;;28.30;99.90;;;;;;6305560;22;20350;-63
2023/06/07 12:13:07;;;;;;;3.55;2.90;;;28.40;99.90;;;;;;6305641;22;20118;-63
2023/06/07 12:15:34;;;;;;;3.35;3.05;;;28.30;99.90;;;;;;6304634;22;19999;-63
2023/06/07 12:18:00;;;;;;;5.53;2.80;;;28.40;99.90;;;;;;6304228;22;20011;-64
2023/06/07 12:20:28;;;;;;;2.97;2.70;;;28.40;99.90;;;;;;6304533;22;20034;-61
2023/06/07 12:23:05;;;;;;;4.10;3.10;;;28.40;99.90;;;;;;6304681;22;20064;-63
2023/06/07 12:25:33;;;;;;;4.75;4.20;;;28.40;99.90;;;;;;6305140;22;20322;-62
2023/06/07 12:28:04;;;;;;;3.42;3.03;;;28.70;99.90;;;;;;6304615;22;20014;-62
2023/06/07 12:30:34;;;;;;;4.30;3.00;;;28.70;99.90;;;;;;6304734;22;20042;-61
2023/06/07 12:33:00;;;;;;;3.47;3.17;;;28.60;99.90;;;;;;6304315;22;20014;-62
2023/06/07 12:35:38;;;;;;;3.63;3.33;;;28.70;99.90;;;;;;6305057;22;20080;-61
2023/06/07 12:38:06;;;;;;;2.83;2.55;;;28.70;99.90;;;;;;6304970;22;20483;-61
2023/06/07 12:40:32;;;;;;;3.15;2.85;;;28.60;99.90;;;;;;6304946;22;20003;-61
2023/06/07 12:42:58;;;;;;;4.25;3.10;;;28.70;99.90;;;;;;6305003;22;20007;-62
2023/06/07 12:45:24;;;;;;;4.70;2.70;;;28.80;99.90;;;;;;6304592;22;20553;-62
2023/06/07 12:47:51;;;;;;;3.72;2.42;;;28.90;99.90;;;;;;6304393;22;20019;-62